createdAt,value
2023-04-03T00:00:41.496Z,100259.00
2023-04-03T00:03:21.990Z,100261.02
2023-04-03T00:05:54.156Z,100260.95
2023-04-03T00:08:26.553Z,100263.86
2023-04-03T00:10:59.047Z,100265.60
2023-04-03T00:13:31.155Z,100269.32
2023-04-03T00:16:04.414Z,100267.08
2023-04-03T00:18:36.613Z,100268.09
2023-04-03T00:21:10.499Z,100270.22
2023-04-03T00:23:42.808Z,100269.89
2023-04-03T00:26:14.912Z,100266.52
2023-04-03T00:28:47.104Z,100271.80
2023-04-03T00:31:19.692Z,100272.27
2023-04-03T00:33:52.422Z,100272.52
2023-04-03T00:36:24.679Z,100272.55
2023-04-03T00:38:57.140Z,100266.29
2023-04-03T00:41:29.330Z,100267.70
2023-04-03T00:44:01.612Z,100268.45
2023-04-03T00:46:34.110Z,100270.20
2023-04-03T00:49:06.290Z,100269.36
2023-04-03T00:51:38.836Z,100273.93
2023-04-03T00:54:11.971Z,100273.98
2023-04-03T00:56:45.319Z,100277.96
2023-04-03T00:59:23.236Z,100277.92
2023-04-03T01:01:57.149Z,100282.14
2023-04-03T01:04:34.583Z,100284.35
2023-04-03T01:07:10.635Z,100283.64
2023-04-03T01:09:44.298Z,100286.63
2023-04-03T01:12:22.166Z,100285.66
2023-04-03T01:14:57.180Z,100288.27
2023-04-03T01:17:35.749Z,100287.67
2023-04-03T01:20:39.426Z,100292.08
2023-04-03T01:23:32.925Z,100292.84
2023-04-03T01:26:06.421Z,100287.77
2023-04-03T01:28:40.148Z,100285.80
2023-04-03T01:31:21.335Z,100288.43
2023-04-03T01:33:53.890Z,100293.38
2023-04-03T01:36:29.134Z,100297.91
2023-04-03T01:39:02.423Z,100298.94
2023-04-03T01:41:34.862Z,100297.17
2023-04-03T01:44:14.341Z,100297.10
2023-04-03T01:46:46.609Z,100297.23
2023-04-03T01:49:18.684Z,100293.80
2023-04-03T01:51:50.722Z,100292.29
2023-04-03T01:54:22.959Z,100297.16
2023-04-03T01:56:55.000Z,100300.73
2023-04-03T01:59:27.210Z,100298.58
2023-04-03T02:01:59.347Z,100303.20
2023-04-03T02:04:31.443Z,100302.67
2023-04-03T02:07:03.655Z,100306.56
2023-04-03T02:09:36.126Z,100303.69
2023-04-03T02:12:08.664Z,100305.27
2023-04-03T02:14:40.834Z,100307.52
2023-04-03T02:17:17.597Z,100312.44
2023-04-03T02:19:49.927Z,100312.43
2023-04-03T02:22:22.061Z,100316.63
2023-04-03T02:24:54.118Z,100314.34
2023-04-03T02:27:26.322Z,100318.56
2023-04-03T02:29:58.363Z,100319.48
2023-04-03T02:32:30.705Z,100319.55
2023-04-03T02:35:03.516Z,100325.01
2023-04-03T02:37:35.778Z,100325.36
2023-04-03T02:40:10.582Z,100331.48
2023-04-03T02:42:42.646Z,100330.85
2023-04-03T02:45:14.990Z,100333.75
2023-04-03T02:47:47.849Z,100332.66
2023-04-03T02:50:19.900Z,100340.44
2023-04-03T02:52:51.859Z,100342.54
2023-04-03T02:55:24.175Z,100345.56
2023-04-03T02:57:56.662Z,100345.64
2023-04-03T03:00:28.727Z,100346.00
2023-04-03T03:03:00.951Z,100348.27
2023-04-03T03:05:33.566Z,100347.23
2023-04-03T03:08:05.681Z,100348.80
2023-04-03T03:10:38.183Z,100348.53
2023-04-03T03:13:10.515Z,100351.86
2023-04-03T03:15:42.638Z,100356.70
2023-04-03T03:18:14.782Z,100356.61
2023-04-03T03:20:46.791Z,100358.59
2023-04-03T03:23:19.370Z,100360.24
2023-04-03T03:25:51.678Z,100362.10
2023-04-03T03:28:23.970Z,100365.14
2023-04-03T03:30:56.239Z,100362.34
2023-04-03T03:33:29.182Z,100365.76
2023-04-03T03:36:01.961Z,100364.58
2023-04-03T03:38:35.023Z,100363.45
2023-04-03T03:41:07.340Z,100365.93
2023-04-03T03:43:40.199Z,100367.48
2023-04-03T03:46:12.743Z,100369.89
2023-04-03T03:48:45.087Z,100370.06
2023-04-03T03:51:17.841Z,100366.70
2023-04-03T03:53:50.036Z,100366.80
2023-04-03T03:56:23.845Z,100368.13
2023-04-03T03:58:57.348Z,100372.30
2023-04-03T04:01:31.749Z,100376.21
2023-04-03T04:04:04.404Z,100376.92
2023-04-03T04:06:36.881Z,100375.77
2023-04-03T04:09:10.903Z,100377.72
2023-04-03T04:11:43.155Z,100383.23
2023-04-03T04:14:16.334Z,100387.45
2023-04-03T04:16:48.958Z,100384.44
2023-04-03T04:19:24.906Z,100388.03
2023-04-03T04:21:57.029Z,100387.02
2023-04-03T04:24:29.542Z,100394.90
2023-04-03T04:27:02.111Z,100397.29
2023-04-03T04:29:37.574Z,100399.70
2023-04-03T04:32:11.257Z,100404.36
2023-04-03T04:34:43.319Z,100405.83
2023-04-03T04:37:16.172Z,100402.77
2023-04-03T04:39:48.144Z,100408.80
2023-04-03T04:42:20.407Z,100413.59
2023-04-03T04:44:53.329Z,100413.02
2023-04-03T04:47:25.546Z,100420.31
2023-04-03T04:49:58.322Z,100424.76
2023-04-03T04:52:31.102Z,100424.02
2023-04-03T04:55:03.360Z,100427.34
2023-04-03T04:57:36.378Z,100432.74
2023-04-03T05:00:11.996Z,100434.81
2023-04-03T05:02:44.490Z,100440.05
2023-04-03T05:05:17.220Z,100442.04
2023-04-03T05:07:49.321Z,100441.12
2023-04-03T05:10:21.689Z,100447.06
2023-04-03T05:12:53.711Z,100450.66
2023-04-03T05:15:26.530Z,100450.77
2023-04-03T05:17:58.825Z,100451.91
2023-04-03T05:20:31.241Z,100455.33
2023-04-03T05:23:03.576Z,100455.63
2023-04-03T05:25:37.385Z,100458.63
2023-04-03T05:28:11.223Z,100457.71
2023-04-03T05:30:43.935Z,100460.98
2023-04-03T05:33:16.416Z,100462.15
2023-04-03T05:35:52.880Z,100459.80
2023-04-03T05:38:30.176Z,100462.19
2023-04-03T05:41:03.138Z,100463.11
2023-04-03T05:43:38.949Z,100463.70
2023-04-03T05:46:19.643Z,100465.63
2023-04-03T05:48:52.457Z,100469.19
2023-04-03T05:51:36.230Z,100468.55
2023-04-03T05:54:26.582Z,100472.38
2023-04-03T05:57:02.447Z,100469.00
2023-04-03T05:59:34.962Z,100469.52
2023-04-03T06:02:07.296Z,100472.98
2023-04-03T06:04:39.548Z,100473.68
2023-04-03T06:07:16.765Z,100467.63
2023-04-03T06:09:48.945Z,100467.11
2023-04-03T06:12:22.279Z,100468.67
2023-04-03T06:14:54.463Z,100471.79
2023-04-03T06:17:28.174Z,100475.16
2023-04-03T06:20:00.672Z,100478.27
2023-04-03T06:22:32.960Z,100480.08
2023-04-03T06:25:08.619Z,100483.20
2023-04-03T06:27:41.517Z,100480.24
2023-04-03T06:30:15.163Z,100486.46
2023-04-03T06:32:47.482Z,100489.30
2023-04-03T06:35:19.955Z,100488.69
2023-04-03T06:37:52.050Z,100483.26
2023-04-03T06:40:27.592Z,100488.35
2023-04-03T06:42:59.930Z,100494.40
2023-04-03T06:45:32.401Z,100490.09
2023-04-03T06:48:04.762Z,100497.27
2023-04-03T06:50:37.309Z,100498.14
2023-04-03T06:53:09.607Z,100499.17
2023-04-03T06:55:42.420Z,100499.88
2023-04-03T06:58:14.941Z,100500.20
2023-04-03T07:00:48.449Z,100501.66
2023-04-03T07:03:20.611Z,100501.54
2023-04-03T07:05:55.496Z,100504.70
2023-04-03T07:08:27.549Z,100510.63
2023-04-03T07:10:59.595Z,100512.79
2023-04-03T07:13:31.651Z,100513.34
2023-04-03T07:16:05.109Z,100516.26
2023-04-03T07:18:38.462Z,100513.93
2023-04-03T07:21:10.659Z,100515.23
2023-04-03T07:23:42.844Z,100518.43
2023-04-03T07:26:14.874Z,100518.25
2023-04-03T07:28:48.650Z,100522.20
2023-04-03T07:31:21.747Z,100524.84
2023-04-03T07:33:53.853Z,100527.23
2023-04-03T07:36:26.364Z,100530.27
2023-04-03T07:38:58.807Z,100526.88
2023-04-03T07:41:31.460Z,100528.25
2023-04-03T07:44:03.629Z,100530.65
2023-04-03T07:46:35.792Z,100529.48
2023-04-03T07:49:08.156Z,100528.90
2023-04-03T07:51:40.921Z,100526.05
2023-04-03T07:54:13.327Z,100527.81
2023-04-03T07:56:46.181Z,100530.23
2023-04-03T07:59:18.159Z,100536.59
2023-04-03T08:01:50.404Z,100537.04
2023-04-03T08:04:22.850Z,100539.66
2023-04-03T08:06:55.351Z,100537.70
2023-04-03T08:09:27.483Z,100533.98
2023-04-03T08:12:00.437Z,100534.30
2023-04-03T08:14:35.560Z,100536.04
2023-04-03T08:17:10.550Z,100537.75
2023-04-03T08:19:43.251Z,100532.95
2023-04-03T08:22:15.355Z,100532.95
2023-04-03T08:24:58.518Z,100530.70
2023-04-03T08:27:34.455Z,100531.91
2023-04-03T08:30:07.984Z,100532.16
2023-04-03T08:32:40.367Z,100535.73
2023-04-03T08:35:13.304Z,100534.96
2023-04-03T08:37:45.683Z,100536.92
2023-04-03T08:40:19.463Z,100542.60
2023-04-03T08:43:05.069Z,100535.59
2023-04-03T08:45:45.768Z,100539.75
2023-04-03T08:48:22.830Z,100542.14
2023-04-03T08:50:58.928Z,100539.59
2023-04-03T08:53:33.609Z,100540.96
2023-04-03T08:56:10.834Z,100541.12
2023-04-03T08:58:50.229Z,100540.10
2023-04-03T09:01:27.712Z,100540.60
2023-04-03T09:04:00.083Z,100537.23
2023-04-03T09:06:35.179Z,100529.83
2023-04-03T09:09:16.145Z,100526.54
2023-04-03T09:11:59.934Z,100529.74
2023-04-03T09:14:39.457Z,100531.36
2023-04-03T09:17:23.717Z,100529.44
2023-04-03T09:20:05.236Z,100536.63
2023-04-03T09:22:45.696Z,100533.23
2023-04-03T09:25:26.081Z,100533.83
2023-04-03T09:27:58.908Z,100541.76
2023-04-03T09:30:31.746Z,100551.36
2023-04-03T09:33:04.007Z,100552.65
2023-04-03T09:35:47.442Z,100543.15
2023-04-03T09:38:22.973Z,100540.98
2023-04-03T09:41:09.047Z,100537.05
2023-04-03T09:43:53.975Z,100541.09
2023-04-03T09:46:36.226Z,100541.61
2023-04-03T09:49:13.530Z,100542.17
2023-04-03T09:51:46.408Z,100546.07
2023-04-03T09:54:44.012Z,100539.89
2023-04-03T09:57:17.141Z,100544.37
2023-04-03T10:00:00.495Z,100548.21
2023-04-03T10:02:41.321Z,100549.98
2023-04-03T10:05:31.962Z,100555.22
2023-04-03T10:08:24.716Z,100549.75
2023-04-03T10:11:20.965Z,100547.19
2023-04-03T10:14:00.649Z,100547.46
2023-04-03T10:16:41.045Z,100549.59
2023-04-03T10:19:44.303Z,100552.77
2023-04-03T10:22:30.462Z,100543.31
2023-04-03T10:25:12.861Z,100533.46
2023-04-03T10:27:56.299Z,100533.89
2023-04-03T10:30:39.372Z,100535.04
2023-04-03T10:33:23.113Z,100537.67
2023-04-03T10:36:10.646Z,100541.83
2023-04-03T10:38:50.991Z,100533.19
2023-04-03T10:41:34.180Z,100532.89
2023-04-03T10:44:20.938Z,100539.49
2023-04-03T10:46:56.143Z,100544.59
2023-04-03T10:49:50.005Z,100534.48
2023-04-03T10:52:30.143Z,100532.14
2023-04-03T10:55:09.914Z,100534.06
2023-04-03T10:57:43.744Z,100530.10
2023-04-03T11:00:23.616Z,100525.55
2023-04-03T11:03:00.187Z,100525.22
2023-04-03T11:05:39.141Z,100530.61
2023-04-03T11:08:19.806Z,100535.35
2023-04-03T11:10:54.918Z,100534.38
2023-04-03T11:13:35.418Z,100531.15
2023-04-03T11:16:08.893Z,100522.11
2023-04-03T11:18:46.140Z,100524.97
2023-04-03T11:21:24.212Z,100524.75
2023-04-03T11:23:59.392Z,100523.74
2023-04-03T11:26:37.813Z,100528.42
2023-04-03T11:29:20.766Z,100521.39
2023-04-03T11:32:38.221Z,100519.41
2023-04-03T11:35:12.005Z,100519.05
2023-04-03T11:37:48.226Z,100520.59
2023-04-03T11:40:28.871Z,100519.12
2023-04-03T11:43:09.566Z,100519.52
2023-04-03T11:45:56.061Z,100511.50
2023-04-03T11:48:54.489Z,100513.98
2023-04-03T11:51:55.367Z,100514.15
2023-04-03T11:54:48.045Z,100514.27
2023-04-03T11:58:04.286Z,100514.73
2023-04-03T12:00:55.355Z,100511.65
2023-04-03T12:04:04.265Z,100508.15
2023-04-03T12:07:00.872Z,100515.80
2023-04-03T12:10:05.704Z,100512.11
2023-04-03T12:12:41.914Z,100511.20
2023-04-03T12:19:05.155Z,100505.67
2023-04-03T12:22:11.034Z,100495.95
2023-04-03T12:24:45.195Z,100494.94
2023-04-03T12:27:41.291Z,100493.11
2023-04-03T12:30:28.910Z,100497.50
2023-04-03T12:33:26.642Z,100490.40
2023-04-03T12:36:13.875Z,100494.22
2023-04-03T12:39:13.633Z,100500.32
2023-04-03T12:41:55.179Z,100492.10
2023-04-03T12:44:50.482Z,100484.06
2023-04-03T12:47:29.096Z,100482.88
2023-04-03T12:50:01.898Z,100485.04
2023-04-03T12:52:42.069Z,100478.63
2023-04-03T12:55:22.802Z,100484.98
2023-04-03T12:57:55.021Z,100482.85
2023-04-03T13:00:33.639Z,100492.34
2023-04-03T13:03:08.778Z,100486.10
2023-04-03T13:05:41.505Z,100478.67
2023-04-03T13:08:17.191Z,100480.90
2023-04-03T13:10:57.535Z,100470.40
2023-04-03T13:13:29.986Z,100482.35
2023-04-03T13:16:10.875Z,100487.55
2023-04-03T13:18:43.368Z,100483.77
2023-04-03T13:21:21.866Z,100476.72
2023-04-03T13:24:11.493Z,100476.56
2023-04-03T13:26:47.392Z,100481.79
2023-04-03T13:29:31.586Z,100478.27
2023-04-03T13:32:06.917Z,100471.73
2023-04-03T13:34:45.900Z,100480.67
2023-04-03T13:37:28.327Z,100480.42
2023-04-03T13:40:13.201Z,100480.35
2023-04-03T13:42:45.913Z,100475.94
2023-04-03T13:45:25.106Z,100477.60
2023-04-03T13:48:20.302Z,100470.71
2023-04-03T13:51:00.055Z,100471.69
2023-04-03T13:53:34.724Z,100479.10
2023-04-03T13:56:18.672Z,100472.02
2023-04-03T13:59:00.778Z,100472.19
2023-04-03T14:01:40.051Z,100469.45
2023-04-03T14:04:21.415Z,100469.59
2023-04-03T14:06:54.489Z,100474.82
2023-04-03T14:09:29.680Z,100471.73
2023-04-03T14:12:08.547Z,100471.28
2023-04-03T14:14:41.314Z,100463.64
2023-04-03T14:17:25.178Z,100466.47
2023-04-03T14:19:59.612Z,100467.66
2023-04-03T14:25:07.905Z,100465.30
2023-04-03T14:27:41.726Z,100464.13
2023-04-03T14:30:19.522Z,100456.27
2023-04-03T14:32:52.633Z,100456.18
2023-04-03T14:35:26.177Z,100462.79
2023-04-03T14:37:58.797Z,100467.79
2023-04-03T14:40:31.371Z,100469.13
2023-04-03T14:43:03.697Z,100467.34
2023-04-03T14:45:36.124Z,100466.48
2023-04-03T14:48:12.303Z,100465.08
2023-04-03T14:50:51.705Z,100470.27
2023-04-03T14:53:38.904Z,100472.52
2023-04-03T14:56:19.298Z,100471.84
2023-04-03T14:58:55.455Z,100460.09
2023-04-03T15:01:27.718Z,100464.35
2023-04-03T15:04:00.009Z,100466.16
2023-04-03T15:06:32.592Z,100470.53
2023-04-03T15:09:05.492Z,100471.08
2023-04-03T15:11:37.557Z,100481.40
2023-04-03T15:14:11.340Z,100481.69
2023-04-03T15:16:43.918Z,100485.42
2023-04-03T15:19:18.429Z,100485.64
2023-04-03T15:21:51.004Z,100489.19
2023-04-03T15:24:23.071Z,100496.92
2023-04-03T15:26:55.149Z,100493.94
2023-04-03T15:29:28.179Z,100494.11
2023-04-03T15:32:00.457Z,100490.46
2023-04-03T15:34:33.386Z,100493.03
2023-04-03T15:37:05.490Z,100491.61
2023-04-03T15:39:37.740Z,100493.95
2023-04-03T15:42:10.385Z,100496.88
2023-04-03T15:44:42.666Z,100506.41
2023-04-03T15:47:16.262Z,100504.02
2023-04-03T15:49:48.567Z,100507.18
2023-04-03T15:52:20.736Z,100512.56
2023-04-03T15:54:53.164Z,100513.95
2023-04-03T15:57:27.926Z,100512.39
2023-04-03T16:00:00.332Z,100511.02
2023-04-03T16:02:32.686Z,100516.40
2023-04-03T16:05:05.376Z,100513.95
2023-04-03T16:07:39.126Z,100515.26
2023-04-03T16:10:14.977Z,100512.06
2023-04-03T16:12:47.377Z,100515.42
2023-04-03T16:15:19.644Z,100518.77
2023-04-03T16:17:52.111Z,100515.19
2023-04-03T16:20:24.645Z,100521.20
2023-04-03T16:22:58.394Z,100521.92
2023-04-03T16:25:32.336Z,100523.52
2023-04-03T16:28:05.174Z,100529.48
2023-04-03T16:30:37.611Z,100529.46
2023-04-03T16:33:11.109Z,100532.48
2023-04-03T16:35:44.764Z,100534.58
2023-04-03T16:38:19.942Z,100538.56
2023-04-03T16:40:53.682Z,100534.23
2023-04-03T16:43:26.398Z,100536.78
2023-04-03T16:45:59.113Z,100537.32
2023-04-03T16:48:31.948Z,100530.94
2023-04-03T16:51:04.442Z,100534.59
2023-04-03T16:53:37.217Z,100533.30
2023-04-03T16:56:09.894Z,100527.83
2023-04-03T16:58:41.999Z,100536.98
2023-04-03T17:01:17.039Z,100541.47
2023-04-03T17:03:50.269Z,100541.84
2023-04-03T17:06:24.697Z,100543.02
2023-04-03T17:08:57.145Z,100551.54
2023-04-03T17:14:11.192Z,100549.52
2023-04-03T17:16:43.639Z,100552.02
2023-04-03T17:19:19.459Z,100555.84
2023-04-03T17:21:53.504Z,100557.63
2023-04-03T17:24:26.297Z,100559.61
2023-04-03T17:26:58.360Z,100565.67
2023-04-03T17:29:30.553Z,100560.86
2023-04-03T17:32:03.169Z,100567.54
2023-04-03T17:34:36.931Z,100569.83
2023-04-03T17:37:09.936Z,100572.45
2023-04-03T17:39:42.137Z,100576.45
2023-04-03T17:42:14.449Z,100575.63
2023-04-03T17:44:47.068Z,100580.67
2023-04-03T17:47:19.198Z,100583.87
2023-04-03T17:49:51.764Z,100583.73
2023-04-03T17:52:26.768Z,100588.86
2023-04-03T17:54:59.040Z,100589.69
2023-04-03T17:57:31.874Z,100588.05
2023-04-03T18:00:07.430Z,100592.02
2023-04-03T18:02:45.530Z,100592.38
2023-04-03T18:05:18.210Z,100597.96
2023-04-03T18:07:50.959Z,100598.10
2023-04-03T18:10:24.257Z,100600.22
2023-04-03T18:12:57.395Z,100599.98
2023-04-03T18:15:29.551Z,100602.95
2023-04-03T18:18:01.989Z,100603.46
2023-04-03T18:20:34.570Z,100603.48
2023-04-03T18:23:07.316Z,100603.77
2023-04-03T18:25:40.807Z,100607.58
2023-04-03T18:28:13.390Z,100608.77
2023-04-03T18:30:46.074Z,100607.33
2023-04-03T18:33:18.916Z,100607.78
2023-04-03T18:35:51.629Z,100604.83
2023-04-03T18:38:23.965Z,100607.48
2023-04-03T18:40:56.932Z,100610.17
2023-04-03T18:43:29.815Z,100608.75
2023-04-03T18:46:02.395Z,100609.27
2023-04-03T18:48:36.240Z,100609.84
2023-04-03T18:51:09.299Z,100612.30
2023-04-03T18:53:41.885Z,100605.88
2023-04-03T18:56:14.397Z,100606.25
2023-04-03T18:58:47.012Z,100606.45
2023-04-03T19:01:20.099Z,100605.38
2023-04-03T19:03:52.610Z,100602.02
2023-04-03T19:06:25.270Z,100606.17
2023-04-03T19:08:57.767Z,100605.29
2023-04-03T19:11:31.457Z,100608.35
2023-04-03T19:14:16.005Z,100601.60
2023-04-03T19:16:49.468Z,100602.58
2023-04-03T19:19:21.738Z,100607.33
2023-04-03T19:21:54.295Z,100610.10
2023-04-03T19:24:27.199Z,100607.99
2023-04-03T19:26:59.625Z,100610.83
2023-04-03T19:29:31.733Z,100613.38
2023-04-03T19:32:04.122Z,100610.87
2023-04-03T19:34:36.768Z,100612.02
2023-04-03T19:37:08.876Z,100611.38
2023-04-03T19:39:41.282Z,100613.95
2023-04-03T19:42:14.118Z,100609.25
2023-04-03T19:44:48.302Z,100612.00
2023-04-03T19:47:22.462Z,100610.21
2023-04-03T19:49:54.595Z,100610.27
2023-04-03T19:52:26.730Z,100611.32
2023-04-03T19:54:59.246Z,100609.84
2023-04-03T19:57:31.610Z,100607.51
2023-04-03T20:00:04.386Z,100611.96
2023-04-03T20:02:43.663Z,100610.61
2023-04-03T20:05:16.205Z,100612.52
2023-04-03T20:07:48.784Z,100615.86
2023-04-03T20:10:21.169Z,100615.84
2023-04-03T20:12:53.736Z,100615.27
2023-04-03T20:15:26.781Z,100616.14
2023-04-03T20:18:00.000Z,100615.13
2023-04-03T20:20:32.405Z,100613.73
2023-04-03T20:23:04.541Z,100612.48
2023-04-03T20:25:50.683Z,100609.74
2023-04-03T20:28:30.198Z,100608.67
2023-04-03T20:31:03.818Z,100606.94
2023-04-03T20:33:37.378Z,100607.46
2023-04-03T20:36:10.181Z,100603.30
2023-04-03T20:38:42.419Z,100601.88
2023-04-03T20:41:14.668Z,100600.98
2023-04-03T20:43:47.933Z,100604.04
2023-04-03T20:46:20.473Z,100599.70
2023-04-03T20:48:52.858Z,100596.92
2023-04-03T20:51:25.316Z,100598.10
2023-04-03T20:53:58.031Z,100603.86
2023-04-03T20:56:34.497Z,100605.61
2023-04-03T20:59:05.482Z,100607.45
2023-04-03T21:01:37.921Z,100608.52
2023-04-03T21:04:17.255Z,100609.74
2023-04-03T21:07:24.034Z,100613.22
2023-04-03T21:10:30.685Z,100614.04
2023-04-03T21:13:37.129Z,100616.48
2023-04-03T21:16:06.246Z,100627.41
2023-04-03T21:18:57.378Z,100624.50
2023-04-03T21:21:30.313Z,100625.27
2023-04-03T21:24:06.625Z,100626.51
2023-04-03T21:26:41.483Z,100627.30
2023-04-03T21:29:14.047Z,100627.08
2023-04-03T21:31:57.978Z,100624.95
2023-04-03T21:34:31.809Z,100627.91
2023-04-03T21:37:06.891Z,100627.80
2023-04-03T21:39:39.030Z,100630.20
2023-04-03T21:42:11.368Z,100628.27
2023-04-03T21:44:43.451Z,100629.81
2023-04-03T21:47:16.232Z,100632.11
2023-04-03T21:49:48.917Z,100632.31
2023-04-03T21:52:21.203Z,100631.05
2023-04-03T21:54:53.359Z,100630.74
2023-04-03T21:57:25.445Z,100624.98
2023-04-03T21:59:58.001Z,100624.30
2023-04-03T22:02:32.510Z,100624.34
2023-04-03T22:05:04.721Z,100620.75
2023-04-03T22:07:37.345Z,100617.06
2023-04-03T22:10:10.293Z,100613.42
2023-04-03T22:12:42.410Z,100611.64
2023-04-03T22:15:14.523Z,100612.44
2023-04-03T22:17:46.875Z,100613.98
2023-04-03T22:20:19.478Z,100610.71
2023-04-03T22:22:53.769Z,100610.97
2023-04-03T22:25:25.934Z,100610.29
2023-04-03T22:27:58.048Z,100609.14
2023-04-03T22:30:30.122Z,100604.61
2023-04-03T22:33:02.273Z,100607.11
2023-04-03T22:35:34.494Z,100606.25
2023-04-03T22:38:06.844Z,100604.19
2023-04-03T22:40:40.004Z,100603.33
2023-04-03T22:43:12.518Z,100602.66
2023-04-03T22:45:51.520Z,100600.59
2023-04-03T22:48:24.066Z,100596.46
2023-04-03T22:50:56.926Z,100597.02
2023-04-03T22:53:29.392Z,100596.23
2023-04-03T22:56:03.292Z,100592.84
2023-04-03T22:58:35.726Z,100592.94
2023-04-03T23:01:09.844Z,100590.09
2023-04-03T23:03:43.648Z,100586.24
2023-04-03T23:06:15.912Z,100586.98
2023-04-03T23:08:48.030Z,100589.77
2023-04-03T23:11:20.196Z,100587.30
2023-04-03T23:13:52.324Z,100587.58
2023-04-03T23:16:24.385Z,100584.81
2023-04-03T23:18:56.740Z,100576.40
2023-04-03T23:21:29.004Z,100573.30
2023-04-03T23:24:01.580Z,100568.14
2023-04-03T23:26:33.637Z,100565.70
2023-04-03T23:29:06.301Z,100568.98
2023-04-03T23:31:38.609Z,100562.45
2023-04-03T23:34:10.689Z,100562.08
2023-04-03T23:36:43.268Z,100559.51
2023-04-03T23:39:15.522Z,100552.41
2023-04-03T23:41:49.046Z,100550.34
2023-04-03T23:44:21.575Z,100551.03
2023-04-03T23:46:53.625Z,100549.45
2023-04-03T23:49:26.104Z,100548.29
2023-04-03T23:51:58.439Z,100549.26
2023-04-03T23:54:31.617Z,100548.26
2023-04-03T23:57:03.680Z,100543.89
2023-04-03T23:59:36.019Z,100547.21
